Time;durP1;ratioP1;P1;durP2;ratioP2;P2;SDS_P1;SDS_P2;PMS_P1;PMS_P2;Temp;Humidity;BMP_temperature;BMP_pressure;BME280_temperature;BME280_humidity;BME280_pressure;Samples;Min_cycle;Max_cycle;Signal;HPM_P1;HPM_P2
2021/08/17 00:00:49;;;;;;;8.73;3.50;;;20.50;67.30;;;;;;5077276;28;20123;-70
2021/08/17 00:03:15;;;;;;;6.63;3.03;;;20.50;67.30;;;;;;5091520;28;20407;-70
2021/08/17 00:05:42;;;;;;;8.48;3.42;;;20.50;67.30;;;;;;5097640;28;20126;-70
2021/08/17 00:08:09;;;;;;;7.68;3.42;;;20.50;67.20;;;;;;5092114;28;20344;-71
2021/08/17 00:10:35;;;;;;;5.43;3.53;;;20.50;67.30;;;;;;5076476;28;20519;-70
2021/08/17 00:13:01;;;;;;;9.07;3.30;;;20.50;67.30;;;;;;5077119;28;20424;-71
2021/08/17 00:15:27;;;;;;;6.35;3.33;;;20.50;67.30;;;;;;5076792;28;20049;-71
2021/08/17 00:17:54;;;;;;;7.88;3.25;;;20.50;67.30;;;;;;5076852;28;20048;-70
2021/08/17 00:20:20;;;;;;;7.18;3.10;;;20.50;67.20;;;;;;5076696;28;20097;-71
2021/08/17 00:22:46;;;;;;;7.47;3.20;;;20.50;67.20;;;;;;5076406;28;20416;-71
2021/08/17 00:25:12;;;;;;;7.38;3.25;;;20.40;67.20;;;;;;5076406;28;20044;-71
2021/08/17 00:27:38;;;;;;;6.05;3.50;;;20.50;67.20;;;;;;5076358;28;20045;-70
2021/08/17 00:30:06;;;;;;;6.38;2.80;;;20.40;67.20;;;;;;5076775;28;20044;-71
2021/08/17 00:32:32;;;;;;;7.47;3.50;;;20.50;67.20;;;;;;5083892;28;20131;-71
2021/08/17 00:34:59;;;;;;;5.38;3.08;;;20.40;67.20;;;;;;5096968;28;20109;-71
2021/08/17 00:37:25;;;;;;;5.07;3.08;;;20.40;67.30;;;;;;5097340;28;20036;-71
2021/08/17 00:39:51;;;;;;;6.95;3.42;;;20.40;67.30;;;;;;5096392;28;20184;-70
2021/08/17 00:42:18;;;;;;;9.18;4.03;;;20.40;67.20;;;;;;5096908;28;20062;-71
2021/08/17 00:44:44;;;;;;;6.40;3.00;;;20.40;67.20;;;;;;5096466;28;20127;-71
2021/08/17 00:47:13;;;;;;;5.05;2.80;;;20.40;67.20;;;;;;5096443;28;20118;-71
2021/08/17 00:49:39;;;;;;;6.43;2.67;;;20.40;67.20;;;;;;5096347;28;20052;-70
2021/08/17 00:52:06;;;;;;;5.78;2.85;;;20.40;67.20;;;;;;5096941;28;20176;-71
2021/08/17 00:54:35;;;;;;;7.75;3.13;;;20.40;67.20;;;;;;5093525;28;20047;-71
2021/08/17 00:57:01;;;;;;;6.13;2.97;;;20.40;67.10;;;;;;5075625;28;20063;-71
2021/08/17 00:59:32;;;;;;;6.90;3.15;;;20.40;67.10;;;;;;5075645;28;20044;-71
2021/08/17 01:02:00;;;;;;;8.13;3.00;;;20.50;67.10;;;;;;5076003;28;20423;-70
2021/08/17 01:04:26;;;;;;;6.93;3.05;;;20.40;67.20;;;;;;5076430;28;20134;-71
2021/08/17 01:06:52;;;;;;;4.32;2.75;;;20.40;67.10;;;;;;5075206;28;20408;-71
2021/08/17 01:09:18;;;;;;;7.13;3.00;;;20.40;67.10;;;;;;5075960;28;20036;-71
2021/08/17 01:11:46;;;;;;;6.93;3.08;;;20.40;67.10;;;;;;5075591;28;20493;-71
2021/08/17 01:14:14;;;;;;;5.53;2.78;;;20.40;67.20;;;;;;5076239;28;20123;-71
2021/08/17 01:16:42;;;;;;;7.32;2.63;;;20.40;67.20;;;;;;5075453;28;20047;-70
2021/08/17 01:19:09;;;;;;;5.82;2.90;;;20.40;67.20;;;;;;5075728;28;20044;-71
2021/08/17 01:21:35;;;;;;;5.63;2.85;;;20.40;67.20;;;;;;5075740;28;20133;-71
2021/08/17 01:24:02;;;;;;;6.57;3.08;;;20.40;67.20;;;;;;5075480;28;20067;-71
2021/08/17 01:26:28;;;;;;;8.18;3.00;;;20.40;67.20;;;;;;5093563;28;20051;-71
2021/08/17 01:28:53;;;;;;;8.68;2.90;;;20.40;67.20;;;;;;5095914;28;20351;-70
2021/08/17 01:31:19;;;;;;;6.45;2.78;;;20.40;67.10;;;;;;5095914;28;20032;-70
2021/08/17 01:33:45;;;;;;;6.53;2.72;;;20.40;67.10;;;;;;5096249;28;20149;-71
2021/08/17 01:36:11;;;;;;;6.22;2.97;;;20.40;67.70;;;;;;5095551;28;20343;-69
2021/08/17 01:38:55;;;;;;;6.10;2.65;;;20.40;67.10;;;;;;5095650;28;20075;-70
2021/08/17 01:41:21;;;;;;;7.18;2.55;;;20.40;67.00;;;;;;5095694;28;20059;-71
2021/08/17 01:43:47;;;;;;;6.13;2.10;;;20.40;67.10;;;;;;5095433;28;20043;-71
2021/08/17 01:46:14;;;;;;;5.88;2.92;;;20.40;67.10;;;;;;5095644;28;20073;-70
2021/08/17 01:48:40;;;;;;;6.57;2.67;;;20.40;67.10;;;;;;5095173;28;20036;-71
2021/08/17 01:51:08;;;;;;;7.15;2.40;;;20.40;67.10;;;;;;5095931;28;20047;-71
2021/08/17 01:53:35;;;;;;;4.97;2.35;;;20.40;67.10;;;;;;5095441;28;20127;-70
2021/08/17 01:56:15;;;;;;;5.53;2.40;;;20.40;67.10;;;;;;5077999;28;20044;-71
2021/08/17 01:58:42;;;;;;;4.55;2.30;;;20.40;67.10;;;;;;5075092;28;20048;-71
2021/08/17 02:01:10;;;;;;;4.15;2.50;;;20.40;67.10;;;;;;5074989;28;20079;-71
2021/08/17 02:03:38;;;;;;;7.25;2.78;;;20.40;67.00;;;;;;5092256;28;20143;-71
2021/08/17 02:06:05;;;;;;;7.50;2.67;;;20.30;67.00;;;;;;5095198;28;20044;-70
2021/08/17 02:08:31;;;;;;;5.57;2.50;;;20.40;67.00;;;;;;5095280;28;20070;-71
2021/08/17 02:10:57;;;;;;;6.38;2.83;;;20.40;67.00;;;;;;5095290;28;20044;-71
2021/08/17 02:13:24;;;;;;;6.80;2.63;;;20.30;67.00;;;;;;5095299;28;20115;-71
2021/08/17 02:15:51;;;;;;;5.20;2.20;;;20.30;66.90;;;;;;5095440;28;20435;-71
2021/08/17 02:18:17;;;;;;;4.70;2.28;;;20.30;66.90;;;;;;5095434;28;20416;-71
2021/08/17 02:20:43;;;;;;;5.93;2.45;;;20.40;66.90;;;;;;5095282;28;20044;-71
2021/08/17 02:23:09;;;;;;;6.80;2.30;;;20.30;66.90;;;;;;5095309;28;20048;-71
2021/08/17 02:25:35;;;;;;;5.07;2.80;;;20.40;66.90;;;;;;5081395;28;20344;-70
2021/08/17 02:28:02;;;;;;;4.35;2.60;;;20.30;66.90;;;;;;5074929;28;20051;-71
2021/08/17 02:30:28;;;;;;;5.15;2.17;;;20.30;66.90;;;;;;5078371;28;20336;-70
2021/08/17 02:32:54;;;;;;;4.00;2.10;;;20.30;66.90;;;;;;5079072;28;20052;-71
2021/08/17 02:35:20;;;;;;;5.82;2.33;;;20.30;66.90;;;;;;5078719;28;20037;-70
2021/08/17 02:37:46;;;;;;;5.50;2.10;;;20.30;66.80;;;;;;5078516;28;20047;-70
2021/08/17 02:40:12;;;;;;;5.80;2.40;;;20.30;66.90;;;;;;5078732;28;20048;-71
2021/08/17 02:42:38;;;;;;;6.57;2.20;;;20.30;66.90;;;;;;5078637;28;20045;-70
2021/08/17 02:45:05;;;;;;;4.53;2.05;;;20.30;66.90;;;;;;5078397;28;20040;-71
2021/08/17 02:47:32;;;;;;;5.40;2.10;;;20.30;66.90;;;;;;5078362;28;20044;-71
2021/08/17 02:49:58;;;;;;;4.60;1.80;;;20.30;66.90;;;;;;5078403;28;20094;-71
2021/08/17 02:52:23;;;;;;;5.45;2.45;;;20.30;66.90;;;;;;5078399;28;20045;-71
2021/08/17 02:54:51;;;;;;;4.45;2.10;;;20.30;66.90;;;;;;5080916;28;20037;-71
2021/08/17 02:57:19;;;;;;;5.10;1.77;;;20.20;66.90;;;;;;5091371;28;20047;-71
2021/08/17 02:59:45;;;;;;;4.85;2.13;;;20.20;66.80;;;;;;5098905;28;20066;-71
2021/08/17 03:02:11;;;;;;;4.10;1.92;;;20.30;66.90;;;;;;5096726;28;20040;-71
2021/08/17 03:04:38;;;;;;;4.32;2.35;;;20.30;66.90;;;;;;5099051;28;20045;-71
2021/08/17 03:07:04;;;;;;;4.43;2.08;;;20.30;66.90;;;;;;5098350;28;20044;-71
2021/08/17 03:09:30;;;;;;;5.22;2.17;;;20.20;66.80;;;;;;5098668;28;20040;-70
2021/08/17 03:11:56;;;;;;;3.45;1.98;;;20.30;66.90;;;;;;5098447;28;20051;-70
2021/08/17 03:14:22;;;;;;;4.10;2.10;;;20.20;66.80;;;;;;5098211;28;20409;-71
2021/08/17 03:16:47;;;;;;;4.32;2.08;;;20.30;66.90;;;;;;5098571;28;20123;-71
2021/08/17 03:19:14;;;;;;;3.60;1.80;;;20.20;66.80;;;;;;5098608;28;20035;-70
2021/08/17 03:21:40;;;;;;;4.65;1.65;;;20.20;66.80;;;;;;5098169;28;20411;-70
2021/08/17 03:24:06;;;;;;;3.00;1.98;;;20.20;66.80;;;;;;5095096;28;20047;-70
2021/08/17 03:26:32;;;;;;;5.75;2.20;;;20.20;66.80;;;;;;5077719;28;20045;-71
2021/08/17 03:28:58;;;;;;;7.13;2.30;;;20.20;66.80;;;;;;5077321;28;20434;-71
2021/08/17 03:31:23;;;;;;;5.32;1.65;;;20.20;66.80;;;;;;5077750;28;20048;-71
2021/08/17 03:33:51;;;;;;;3.63;1.92;;;20.20;66.80;;;;;;5077706;28;20044;-71
2021/08/17 03:36:17;;;;;;;4.78;2.22;;;20.20;66.80;;;;;;5077359;28;20040;-71
2021/08/17 03:38:43;;;;;;;5.53;1.98;;;20.20;66.80;;;;;;5077739;28;20041;-71
2021/08/17 03:41:09;;;;;;;4.95;1.80;;;20.20;66.80;;;;;;5077662;28;20071;-70
2021/08/17 03:43:36;;;;;;;5.40;1.88;;;20.20;66.80;;;;;;5077848;28;20366;-71
2021/08/17 03:46:04;;;;;;;5.80;2.15;;;20.20;66.80;;;;;;5077709;28;20394;-71
2021/08/17 03:48:32;;;;;;;5.95;1.85;;;20.20;66.80;;;;;;5077214;28;20107;-70
2021/08/17 03:50:58;;;;;;;4.47;1.90;;;20.20;66.80;;;;;;5077177;28;20402;-71
2021/08/17 03:53:24;;;;;;;5.03;1.90;;;20.20;66.80;;;;;;5077108;28;20079;-70
2021/08/17 03:55:50;;;;;;;3.95;1.60;;;20.20;66.80;;;;;;5096391;28;20044;-71
2021/08/17 03:58:16;;;;;;;4.95;2.03;;;20.20;66.80;;;;;;5097322;28;20109;-71
2021/08/17 04:00:42;;;;;;;5.60;2.22;;;20.20;66.80;;;;;;5097256;28;20040;-70
2021/08/17 04:03:08;;;;;;;4.68;2.35;;;20.20;66.80;;;;;;5095606;28;20105;-71
2021/08/17 04:05:34;;;;;;;5.00;2.30;;;20.20;67.40;;;;;;5097317;28;20436;-70
2021/08/17 04:08:02;;;;;;;4.82;1.88;;;20.20;66.80;;;;;;5097423;28;20409;-71
2021/08/17 04:10:28;;;;;;;4.35;1.77;;;20.20;66.80;;;;;;5097482;28;20090;-71
2021/08/17 04:12:54;;;;;;;6.93;2.47;;;20.20;66.80;;;;;;5097216;28;20036;-70
2021/08/17 04:15:20;;;;;;;4.57;1.95;;;20.20;66.80;;;;;;5097110;28;20044;-71
2021/08/17 04:17:45;;;;;;;7.55;2.30;;;20.20;66.80;;;;;;5097078;28;20051;-70
2021/08/17 04:20:12;;;;;;;4.78;1.75;;;20.20;66.80;;;;;;5097059;28;20036;-71
2021/08/17 04:22:38;;;;;;;5.00;2.28;;;20.20;66.80;;;;;;5097501;28;20050;-71
2021/08/17 04:25:05;;;;;;;5.95;2.20;;;20.20;67.40;;;;;;5096968;28;20126;-71
2021/08/17 04:27:32;;;;;;;4.45;2.05;;;20.10;66.80;;;;;;5096993;28;20040;-71
2021/08/17 04:30:05;;;;;;;4.93;2.00;;;20.20;66.90;;;;;;5096657;28;20462;-70
2021/08/17 04:32:31;;;;;;;6.30;2.28;;;20.10;66.80;;;;;;5089593;28;20157;-71
2021/08/17 04:34:57;;;;;;;5.20;2.03;;;20.20;66.80;;;;;;5076692;28;20500;-71
2021/08/17 04:37:23;;;;;;;4.18;2.13;;;20.20;66.80;;;;;;5076549;28;20032;-70
2021/08/17 04:39:48;;;;;;;5.15;2.00;;;20.20;66.80;;;;;;5076555;28;20041;-71
2021/08/17 04:42:14;;;;;;;4.28;2.15;;;20.20;66.80;;;;;;5076498;28;20037;-71
2021/08/17 04:44:40;;;;;;;4.38;1.90;;;20.10;66.80;;;;;;5076522;28;20044;-71
2021/08/17 04:47:06;;;;;;;3.47;2.22;;;20.10;66.80;;;;;;5076284;28;20038;-71
2021/08/17 04:49:33;;;;;;;6.13;2.30;;;20.10;66.80;;;;;;5076583;28;20074;-71
2021/08/17 04:51:58;;;;;;;6.00;2.25;;;20.10;66.80;;;;;;5075481;28;20060;-70
2021/08/17 04:54:24;;;;;;;4.93;2.67;;;20.10;66.90;;;;;;5075901;28;20059;-71
2021/08/17 04:56:50;;;;;;;6.60;2.75;;;20.10;66.90;;;;;;5076141;28;20056;-71
2021/08/17 04:59:16;;;;;;;4.68;2.17;;;20.10;66.90;;;;;;5076197;28;20048;-70
2021/08/17 05:01:42;;;;;;;6.70;2.70;;;20.10;66.90;;;;;;5075690;28;20044;-70
2021/08/17 05:04:08;;;;;;;5.85;2.47;;;20.10;67.00;;;;;;5096390;28;20339;-71
2021/08/17 05:06:35;;;;;;;4.53;2.30;;;20.10;66.90;;;;;;5091216;28;20104;-72
2021/08/17 05:09:01;;;;;;;4.88;2.70;;;20.10;66.80;;;;;;5076375;28;20087;-72
2021/08/17 05:11:27;;;;;;;5.65;2.53;;;20.10;66.90;;;;;;5091232;28;20339;-73
2021/08/17 05:13:52;;;;;;;6.80;2.45;;;20.10;67.00;;;;;;5095719;28;20036;-71
2021/08/17 05:16:18;;;;;;;11.30;3.05;;;20.10;67.10;;;;;;5095944;28;20055;-72
2021/08/17 05:18:45;;;;;;;9.32;2.72;;;20.10;67.30;;;;;;5096200;28;20047;-75
2021/08/17 05:21:11;;;;;;;11.38;2.75;;;20.10;67.50;;;;;;5095648;28;20431;-74
2021/08/17 05:23:37;;;;;;;8.95;3.13;;;20.10;67.70;;;;;;5096633;28;20051;-72
2021/08/17 05:26:03;;;;;;;8.25;2.92;;;20.10;67.70;;;;;;5095379;28;20040;-72
2021/08/17 05:28:30;;;;;;;9.88;2.90;;;20.10;67.90;;;;;;5095683;28;20040;-72
2021/08/17 05:30:56;;;;;;;8.75;3.00;;;20.10;68.10;;;;;;5095622;28;20093;-72
2021/08/17 05:33:21;;;;;;;11.20;3.35;;;20.10;68.20;;;;;;5094846;28;20101;-74
2021/08/17 05:35:48;;;;;;;11.82;3.25;;;20.10;68.40;;;;;;5095629;28;20040;-73
2021/08/17 05:38:14;;;;;;;5.55;2.90;;;20.10;68.30;;;;;;5095577;28;20125;-73
2021/08/17 05:40:40;;;;;;;8.50;2.97;;;20.10;68.30;;;;;;5095773;28;20052;-73
2021/08/17 05:43:05;;;;;;;8.27;2.55;;;20.10;68.20;;;;;;5090184;28;20351;-72
2021/08/17 05:45:33;;;;;;;6.82;2.75;;;20.00;68.10;;;;;;5087716;28;20040;-72
2021/08/17 05:47:59;;;;;;;7.32;2.58;;;20.10;68.20;;;;;;5095654;28;20393;-72
2021/08/17 05:50:25;;;;;;;6.85;2.97;;;20.10;68.00;;;;;;5075775;28;20060;-72
2021/08/17 05:52:51;;;;;;;9.52;2.75;;;20.10;68.00;;;;;;5075214;28;20496;-72
2021/08/17 05:55:17;;;;;;;7.28;2.47;;;20.00;68.00;;;;;;5074887;28;20371;-72
2021/08/17 05:57:58;;;;;;;6.25;2.22;;;20.00;67.80;;;;;;5074997;28;20059;-73
2021/08/17 06:00:24;;;;;;;5.25;2.70;;;20.10;67.70;;;;;;5076820;28;20056;-73
2021/08/17 06:02:49;;;;;;;7.40;2.30;;;20.00;68.00;;;;;;5097553;28;20040;-72
2021/08/17 06:05:16;;;;;;;7.03;3.20;;;20.00;68.00;;;;;;5102584;28;20117;-71
2021/08/17 06:07:49;;;;;;;5.50;2.72;;;20.00;68.20;;;;;;5101851;28;20050;-72
2021/08/17 06:10:16;;;;;;;7.35;2.92;;;20.00;68.10;;;;;;5102046;28;20051;-72
2021/08/17 06:12:42;;;;;;;6.63;2.92;;;20.00;68.10;;;;;;5102283;28;20052;-72
2021/08/17 06:15:09;;;;;;;7.55;2.45;;;20.10;68.20;;;;;;5101971;28;20383;-72
2021/08/17 06:17:35;;;;;;;6.35;2.63;;;20.10;68.20;;;;;;5102063;28;20044;-72
2021/08/17 06:20:03;;;;;;;4.50;2.25;;;20.00;68.20;;;;;;5101825;28;20347;-72
2021/08/17 06:22:29;;;;;;;6.05;2.65;;;20.00;68.30;;;;;;5102312;28;20051;-73
2021/08/17 06:24:54;;;;;;;5.97;2.75;;;20.10;68.40;;;;;;5101925;28;20439;-72
2021/08/17 06:27:20;;;;;;;6.15;2.42;;;20.10;68.40;;;;;;5101977;28;20427;-72
2021/08/17 06:29:46;;;;;;;8.82;2.78;;;20.10;68.50;;;;;;5101870;28;20043;-73
2021/08/17 06:32:12;;;;;;;5.28;2.33;;;20.10;68.30;;;;;;5101493;28;20473;-72
2021/08/17 06:34:37;;;;;;;4.78;2.78;;;20.10;68.30;;;;;;5102082;28;20036;-72
2021/08/17 06:37:03;;;;;;;5.60;2.83;;;20.10;68.30;;;;;;5101697;28;20111;-72
2021/08/17 06:39:29;;;;;;;6.55;3.25;;;20.10;68.20;;;;;;5102021;28;20447;-72
2021/08/17 06:41:55;;;;;;;6.60;2.60;;;20.10;68.40;;;;;;5117145;28;20052;-72
2021/08/17 06:44:21;;;;;;;14.52;2.85;;;20.10;67.90;;;;;;5092341;28;20119;-72
2021/08/17 06:46:46;;;;;;;10.38;2.63;;;20.10;68.10;;;;;;5080795;28;20039;-72
2021/08/17 06:49:13;;;;;;;10.25;2.72;;;20.10;68.20;;;;;;5080777;28;20045;-72
2021/08/17 06:51:39;;;;;;;7.20;3.00;;;20.10;68.10;;;;;;5081558;28;20507;-72
2021/08/17 06:54:05;;;;;;;8.40;2.92;;;20.10;68.20;;;;;;5063670;28;20120;-72
2021/08/17 06:56:31;;;;;;;9.70;2.88;;;20.10;68.20;;;;;;5081360;28;20047;-71
2021/08/17 06:58:56;;;;;;;6.30;2.42;;;20.10;68.20;;;;;;5088145;28;20105;-73
2021/08/17 07:01:22;;;;;;;6.97;2.47;;;20.10;68.30;;;;;;5101652;28;20051;-74
2021/08/17 07:03:48;;;;;;;7.20;2.97;;;20.10;68.30;;;;;;5101478;28;20179;-72
2021/08/17 07:06:14;;;;;;;9.93;3.67;;;20.10;68.20;;;;;;5097770;28;20070;-75
2021/08/17 07:08:40;;;;;;;13.25;3.47;;;20.10;68.30;;;;;;5091542;28;20355;-72
2021/08/17 07:11:06;;;;;;;8.52;2.78;;;20.10;68.20;;;;;;5085860;28;20443;-72
2021/08/17 07:13:32;;;;;;;6.72;3.03;;;20.10;68.00;;;;;;5081668;28;20044;-72
2021/08/17 07:15:58;;;;;;;8.60;2.90;;;20.10;68.10;;;;;;5085404;28;20048;-73
2021/08/17 07:18:24;;;;;;;8.32;3.35;;;20.10;68.10;;;;;;5086181;28;20041;-72
2021/08/17 07:20:50;;;;;;;9.90;3.60;;;20.00;68.00;;;;;;5087529;28;20350;-71
2021/08/17 07:23:17;;;;;;;9.32;3.30;;;20.00;68.10;;;;;;5096320;28;20450;-72
2021/08/17 07:25:43;;;;;;;9.73;3.30;;;20.10;68.40;;;;;;5095518;28;20347;-73
2021/08/17 07:28:12;;;;;;;14.07;3.45;;;20.10;68.60;;;;;;5078818;28;20033;-71
2021/08/17 07:30:39;;;;;;;16.77;4.82;;;20.10;68.40;;;;;;5090612;28;20115;-74
2021/08/17 07:33:05;;;;;;;16.80;5.13;;;20.10;69.10;;;;;;5097987;28;20082;-72
2021/08/17 07:35:31;;;;;;;16.58;5.03;;;20.20;69.20;;;;;;5094789;28;20076;-72
2021/08/17 07:37:57;;;;;;;12.75;5.50;;;20.20;68.90;;;;;;5077478;28;20352;-72
2021/08/17 07:40:23;;;;;;;11.73;5.25;;;20.20;69.10;;;;;;5077751;28;20328;-74
2021/08/17 07:42:50;;;;;;;10.65;5.70;;;20.20;69.20;;;;;;5077541;28;20046;-72
2021/08/17 07:45:16;;;;;;;14.98;6.80;;;20.20;69.30;;;;;;5077481;28;20132;-71
2021/08/17 07:47:43;;;;;;;15.88;9.27;;;20.20;69.00;;;;;;5076720;28;20041;-72
2021/08/17 07:50:11;;;;;;;12.10;7.03;;;20.10;69.70;;;;;;5077134;28;20101;-72
2021/08/17 07:52:38;;;;;;;14.65;7.50;;;20.10;69.80;;;;;;5077087;28;20079;-72
2021/08/17 07:55:11;;;;;;;14.48;6.43;;;20.10;70.10;;;;;;5077073;28;20040;-72
2021/08/17 07:57:37;;;;;;;;;;;20.10;69.80;;;;;;5077275;28;20052;-69
2021/08/17 08:00:06;;;;;;;18.45;7.82;;;20.10;69.80;;;;;;5076989;28;19917;-71
2021/08/17 08:02:32;;;;;;;15.60;6.75;;;20.00;70.00;;;;;;5086203;28;20044;-72
2021/08/17 08:04:57;;;;;;;13.73;6.45;;;20.00;69.80;;;;;;5097077;28;20036;-72
2021/08/17 08:07:23;;;;;;;15.48;6.55;;;20.00;69.80;;;;;;5097213;28;20409;-71
2021/08/17 08:09:49;;;;;;;15.60;6.25;;;20.00;69.90;;;;;;5096278;28;20044;-71
2021/08/17 08:12:15;;;;;;;15.88;6.65;;;20.00;70.00;;;;;;5076212;28;20033;-71
2021/08/17 08:14:41;;;;;;;18.08;7.93;;;19.90;70.00;;;;;;5076401;28;20037;-72
2021/08/17 08:17:07;;;;;;;31.17;12.93;;;19.90;70.10;;;;;;5076576;28;20466;-71
2021/08/17 08:19:34;;;;;;;28.70;13.32;;;19.90;70.90;;;;;;5076621;28;20396;-72
2021/08/17 08:22:00;;;;;;;23.73;11.15;;;20.00;71.90;;;;;;5088955;28;20100;-72
2021/08/17 08:24:25;;;;;;;19.73;10.93;;;20.00;72.10;;;;;;5096947;28;20123;-72
2021/08/17 08:26:51;;;;;;;28.38;13.40;;;20.00;72.40;;;;;;5095714;28;20078;-74
2021/08/17 08:29:17;;;;;;;16.70;9.38;;;20.00;72.70;;;;;;5096803;28;20043;-71
2021/08/17 08:31:43;;;;;;;14.40;8.55;;;20.00;72.70;;;;;;5096707;28;20043;-72
2021/08/17 08:34:08;;;;;;;24.55;12.77;;;20.00;73.00;;;;;;5096580;28;20062;-70
2021/08/17 08:36:34;;;;;;;15.60;8.63;;;20.00;73.20;;;;;;5096186;28;20055;-74
2021/08/17 08:39:00;;;;;;;17.23;8.43;;;20.00;73.50;;;;;;5096989;28;20480;-72
2021/08/17 08:41:27;;;;;;;18.17;8.45;;;20.00;73.60;;;;;;5094656;28;20040;-74
2021/08/17 08:43:53;;;;;;;19.23;9.95;;;19.90;73.20;;;;;;5084707;28;20046;-74
2021/08/17 08:46:20;;;;;;;14.73;7.97;;;20.00;74.10;;;;;;5082299;28;20036;-75
2021/08/17 08:48:51;;;;;;;16.73;7.65;;;20.00;73.60;;;;;;5076525;28;20324;-74
2021/08/17 08:51:20;;;;;;;13.32;7.63;;;20.00;72.60;;;;;;5076909;28;20040;-74
2021/08/17 08:53:47;;;;;;;17.80;7.25;;;19.90;71.50;;;;;;5076009;28;20071;-74
2021/08/17 08:56:13;;;;;;;18.17;6.78;;;19.90;71.20;;;;;;5075840;28;20195;-74
2021/08/17 08:58:43;;;;;;;25.00;7.63;;;19.90;71.40;;;;;;5075770;28;20072;-70
2021/08/17 09:01:10;;;;;;;27.10;8.10;;;19.90;71.50;;;;;;5076213;28;20352;-72
2021/08/17 09:03:57;;;;;;;22.80;7.55;;;19.90;71.50;;;;;;5076204;28;20044;-78
2021/08/17 09:06:33;;;;;;;19.70;7.70;;;19.90;71.50;;;;;;5075348;28;20402;-73
2021/08/17 09:09:16;;;;;;;18.20;7.70;;;19.90;71.40;;;;;;5091518;28;20051;-71
2021/08/17 09:11:44;;;;;;;23.25;7.75;;;20.00;71.20;;;;;;5075394;28;20416;-74
2021/08/17 09:14:26;;;;;;;27.88;7.32;;;20.00;71.20;;;;;;5075836;28;20359;-74
2021/08/17 09:17:01;;;;;;;18.77;7.40;;;20.00;71.20;;;;;;5075712;28;20045;-74
2021/08/17 09:19:31;;;;;;;28.70;8.13;;;20.00;71.30;;;;;;5075333;28;20397;-73
2021/08/17 09:22:01;;;;;;;23.70;7.65;;;20.00;71.40;;;;;;5075483;28;20049;-72
2021/08/17 09:24:32;;;;;;;26.08;7.80;;;20.00;71.60;;;;;;5075709;28;20041;-75
2021/08/17 09:27:21;;;;;;;24.30;7.20;;;20.10;71.50;;;;;;5075573;28;20406;-74
2021/08/17 09:29:53;;;;;;;23.25;6.75;;;20.10;71.50;;;;;;5075576;28;20324;-74
2021/08/17 09:32:26;;;;;;;16.58;6.43;;;20.10;71.40;;;;;;5075342;28;20043;-74
2021/08/17 09:34:55;;;;;;;21.52;7.53;;;20.10;71.30;;;;;;5075216;28;20044;-75
2021/08/17 09:37:29;;;;;;;19.27;7.00;;;20.10;71.20;;;;;;5077682;28;20047;-74
2021/08/17 09:39:56;;;;;;;19.13;6.80;;;20.10;71.20;;;;;;5079239;28;20127;-74
2021/08/17 09:42:35;;;;;;;17.25;6.93;;;20.10;71.10;;;;;;5057338;28;20542;-74
2021/08/17 09:45:16;;;;;;;15.70;7.20;;;20.10;70.90;;;;;;5075367;28;20044;-73
2021/08/17 09:47:55;;;;;;;18.77;6.93;;;20.20;71.00;;;;;;5075999;28;20036;-73
2021/08/17 09:50:26;;;;;;;19.38;7.15;;;20.20;70.90;;;;;;5074668;28;20044;-74
2021/08/17 09:53:13;;;;;;;13.98;5.72;;;20.20;71.00;;;;;;5074912;28;20416;-74
2021/08/17 09:55:44;;;;;;;16.08;6.22;;;20.20;70.80;;;;;;5075474;28;20138;-73
2021/08/17 09:58:26;;;;;;;11.65;5.72;;;20.20;70.90;;;;;;5075226;28;20053;-74
2021/08/17 10:00:54;;;;;;;16.52;6.03;;;20.20;70.80;;;;;;5075830;28;20116;-74
2021/08/17 10:03:21;;;;;;;12.95;5.68;;;20.20;70.80;;;;;;5092602;28;20055;-74
2021/08/17 10:05:47;;;;;;;13.07;5.88;;;20.20;70.70;;;;;;5095154;28;20128;-74
2021/08/17 10:08:16;;;;;;;18.50;6.63;;;20.30;70.70;;;;;;5095356;28;20044;-74
2021/08/17 10:10:47;;;;;;;12.90;5.78;;;20.30;70.60;;;;;;5095452;28;20047;-74
2021/08/17 10:13:18;;;;;;;13.30;5.20;;;20.30;70.60;;;;;;5095365;28;20058;-74
2021/08/17 10:15:46;;;;;;;15.50;6.10;;;20.30;70.60;;;;;;5095092;28;20036;-74
2021/08/17 10:18:15;;;;;;;10.50;5.18;;;20.30;70.50;;;;;;5095427;28;20115;-74
2021/08/17 10:20:47;;;;;;;12.90;5.63;;;20.30;70.50;;;;;;5094985;28;20503;-74
2021/08/17 10:23:16;;;;;;;17.08;6.30;;;20.30;70.40;;;;;;5095224;28;20044;-74
2021/08/17 10:25:56;;;;;;;8.93;5.47;;;20.30;70.40;;;;;;5095265;28;20093;-74
2021/08/17 10:28:37;;;;;;;14.57;5.32;;;20.30;70.30;;;;;;5095431;28;20122;-74
2021/08/17 10:31:12;;;;;;;12.65;6.10;;;20.30;70.40;;;;;;5095019;28;20056;-74
2021/08/17 10:33:40;;;;;;;13.57;5.65;;;20.30;70.30;;;;;;5075462;28;20048;-74
2021/08/17 10:36:08;;;;;;;10.20;5.10;;;20.30;70.30;;;;;;5074781;28;20064;-74
2021/08/17 10:38:39;;;;;;;9.45;5.50;;;20.30;70.30;;;;;;5075290;28;20044;-74
2021/08/17 10:41:08;;;;;;;9.65;5.43;;;20.30;70.30;;;;;;5074790;28;20060;-74
2021/08/17 10:43:33;;;;;;;11.63;5.30;;;20.40;70.30;;;;;;5074697;28;20458;-74
2021/08/17 10:46:05;;;;;;;11.77;5.32;;;20.40;70.30;;;;;;5074658;28;20040;-74
2021/08/17 10:48:46;;;;;;;9.70;5.70;;;20.40;70.30;;;;;;5075057;28;20420;-74
2021/08/17 10:51:38;;;;;;;9.70;5.32;;;20.40;70.10;;;;;;5078114;28;20440;-74
2021/08/17 10:54:04;;;;;;;8.77;5.38;;;20.40;70.00;;;;;;5064930;28;20437;-74
2021/08/17 10:56:32;;;;;;;8.90;4.68;;;20.40;70.10;;;;;;5078251;28;20462;-74
2021/08/17 10:58:59;;;;;;;9.38;4.72;;;20.40;70.10;;;;;;5078330;28;20037;-73
2021/08/17 11:01:48;;;;;;;10.80;5.05;;;20.40;70.10;;;;;;5078291;28;20040;-75
2021/08/17 11:04:18;;;;;;;8.02;4.60;;;20.40;70.00;;;;;;5078183;28;20125;-74
2021/08/17 11:06:57;;;;;;;12.43;4.95;;;20.40;70.10;;;;;;5078328;28;20040;-74
2021/08/17 11:09:36;;;;;;;11.10;4.82;;;20.40;70.00;;;;;;5078186;28;20048;-74
2021/08/17 11:12:04;;;;;;;9.88;5.07;;;20.40;69.90;;;;;;5077956;28;20115;-74
2021/08/17 11:14:32;;;;;;;7.47;4.95;;;20.40;70.00;;;;;;5077738;28;20079;-74
2021/08/17 11:17:05;;;;;;;11.32;5.63;;;20.40;70.00;;;;;;5078570;28;20041;-74
2021/08/17 11:19:33;;;;;;;7.65;4.80;;;20.40;69.90;;;;;;5078102;28;20040;-74
2021/08/17 11:22:03;;;;;;;7.97;4.80;;;20.40;69.90;;;;;;5078095;28;20074;-74
2021/08/17 11:24:32;;;;;;;11.02;4.70;;;20.40;69.90;;;;;;5077748;28;20036;-74
2021/08/17 11:27:07;;;;;;;8.18;5.18;;;20.40;69.80;;;;;;5078035;28;20098;-73
2021/08/17 11:29:43;;;;;;;7.30;4.65;;;20.40;69.90;;;;;;5078118;28;20040;-74
2021/08/17 11:32:13;;;;;;;6.88;4.35;;;20.40;69.80;;;;;;5086632;28;20111;-74
2021/08/17 11:34:41;;;;;;;8.90;4.45;;;20.40;69.80;;;;;;5098067;28;20059;-74
2021/08/17 11:37:09;;;;;;;7.93;5.07;;;20.40;69.80;;;;;;5097625;28;20086;-74
2021/08/17 11:39:42;;;;;;;7.53;4.10;;;20.40;69.70;;;;;;5097805;28;20044;-74
2021/08/17 11:42:27;;;;;;;7.20;4.60;;;20.40;69.70;;;;;;5097788;28;20068;-74
2021/08/17 11:45:24;;;;;;;7.07;4.38;;;20.40;69.50;;;;;;5097593;28;20118;-75
2021/08/17 11:47:51;;;;;;;7.65;3.95;;;20.40;69.50;;;;;;5098029;28;20048;-74
2021/08/17 11:50:20;;;;;;;7.32;4.20;;;20.40;69.60;;;;;;5097563;28;20391;-75
2021/08/17 11:52:50;;;;;;;6.70;4.15;;;20.50;69.70;;;;;;5097712;28;20040;-74
2021/08/17 11:55:20;;;;;;;7.40;4.28;;;20.50;69.70;;;;;;5097621;28;20097;-74
2021/08/17 11:57:58;;;;;;;7.95;4.60;;;20.50;69.70;;;;;;5097189;28;20043;-74
2021/08/17 12:00:29;;;;;;;9.02;4.63;;;20.50;69.70;;;;;;5097436;28;20060;-75
2021/08/17 12:02:59;;;;;;;7.35;4.45;;;20.50;69.70;;;;;;5095770;28;20054;-75
2021/08/17 12:05:27;;;;;;;8.57;4.10;;;20.50;69.70;;;;;;5097234;28;20048;-75
2021/08/17 12:07:54;;;;;;;6.03;3.88;;;20.50;69.70;;;;;;5097461;28;20042;-75
2021/08/17 12:10:28;;;;;;;6.57;4.13;;;20.50;69.70;;;;;;5097459;28;20040;-74
2021/08/17 12:12:58;;;;;;;6.95;4.05;;;20.50;69.70;;;;;;5097391;28;20106;-75
2021/08/17 12:15:38;;;;;;;7.13;3.97;;;20.50;69.70;;;;;;5097488;28;20055;-74
2021/08/17 12:18:12;;;;;;;6.40;4.07;;;20.50;69.70;;;;;;5097297;28;20113;-74
2021/08/17 12:20:41;;;;;;;6.72;3.65;;;20.50;69.70;;;;;;5096921;28;20051;-74
2021/08/17 12:23:17;;;;;;;7.32;4.30;;;20.50;69.80;;;;;;5096757;28;20447;-74
2021/08/17 12:25:45;;;;;;;6.43;3.92;;;20.50;69.70;;;;;;5096996;28;20056;-74
2021/08/17 12:28:27;;;;;;;6.82;3.63;;;20.50;69.80;;;;;;5097082;28;20442;-74
2021/08/17 12:31:13;;;;;;;6.85;4.13;;;20.50;69.70;;;;;;5096237;28;20165;-75
2021/08/17 12:33:50;;;;;;;5.88;3.78;;;20.50;69.60;;;;;;5076449;28;20044;-74
2021/08/17 12:36:19;;;;;;;5.47;3.45;;;20.50;69.80;;;;;;5076405;28;20427;-74
2021/08/17 12:38:45;;;;;;;6.10;3.72;;;20.50;69.70;;;;;;5076773;28;20052;-74
2021/08/17 12:41:28;;;;;;;5.75;3.38;;;20.50;69.70;;;;;;5077206;28;20178;-74
2021/08/17 12:43:54;;;;;;;5.65;3.55;;;20.50;69.60;;;;;;5075913;28;20298;-74
2021/08/17 12:46:19;;;;;;;5.22;3.70;;;20.50;69.70;;;;;;5076524;28;20432;-74
2021/08/17 12:48:46;;;;;;;5.93;3.35;;;20.50;69.70;;;;;;5076787;28;20076;-74